createdAt,value
2022-11-09T00:00:01.549Z,14.49
2022-11-09T00:05:01.511Z,14.37
2022-11-09T00:10:01.608Z,14.35
2022-11-09T00:15:01.718Z,14.37
2022-11-09T00:20:01.594Z,14.32
2022-11-09T00:25:01.554Z,14.27
2022-11-09T00:30:01.701Z,14.27
2022-11-09T00:35:01.671Z,14.25
2022-11-09T00:40:01.468Z,14.15
2022-11-09T00:45:01.597Z,14.03
2022-11-09T00:50:01.570Z,14
2022-11-09T00:55:01.483Z,13.97
2022-11-09T01:00:02.137Z,13.88
2022-11-09T01:05:02.157Z,13.94
2022-11-09T01:10:01.420Z,13.96
2022-11-09T01:15:01.517Z,14.05
2022-11-09T01:20:01.794Z,14.03
2022-11-09T01:25:01.714Z,13.99
2022-11-09T01:30:01.717Z,13.96
2022-11-09T01:35:01.422Z,14
2022-11-09T01:40:01.664Z,14.07
2022-11-09T01:45:01.578Z,14.12
2022-11-09T01:50:01.757Z,14.1
2022-11-09T01:55:01.618Z,14.18
2022-11-09T02:00:01.766Z,14.22
2022-11-09T02:05:01.319Z,14.17
2022-11-09T02:10:01.909Z,14.14
2022-11-09T02:15:01.902Z,14.2
2022-11-09T02:20:02.249Z,14.15
2022-11-09T02:25:01.394Z,14.11
2022-11-09T02:30:02.127Z,14.1
2022-11-09T02:35:01.860Z,14
2022-11-09T02:40:02.318Z,14.01
2022-11-09T02:45:01.902Z,13.93
2022-11-09T02:50:01.752Z,13.85
2022-11-09T02:55:01.606Z,13.83
2022-11-09T03:00:01.676Z,13.82
2022-11-09T03:05:01.855Z,13.77
2022-11-09T03:10:02.015Z,13.79
2022-11-09T03:15:02.036Z,13.79
2022-11-09T03:20:02.133Z,13.74
2022-11-09T03:25:02.029Z,13.81
2022-11-09T03:30:01.922Z,13.94
2022-11-09T03:35:01.678Z,13.95
2022-11-09T03:40:01.466Z,13.96
2022-11-09T03:45:01.635Z,14
2022-11-09T03:50:01.461Z,13.91
2022-11-09T03:55:01.758Z,13.9
2022-11-09T04:00:01.617Z,13.93
2022-11-09T04:05:02.027Z,13.91
2022-11-09T04:10:01.974Z,13.83
2022-11-09T04:15:01.849Z,13.79
2022-11-09T04:20:01.746Z,13.82
2022-11-09T04:25:01.639Z,13.84
2022-11-09T04:30:01.677Z,13.83
2022-11-09T04:35:01.520Z,13.8
2022-11-09T04:40:01.424Z,13.78
2022-11-09T04:45:01.461Z,13.8
2022-11-09T04:50:02.230Z,13.81
2022-11-09T04:55:02.147Z,13.83
2022-11-09T05:00:02.184Z,13.81
2022-11-09T05:05:01.814Z,13.81
2022-11-09T05:10:01.751Z,13.83
2022-11-09T05:15:01.722Z,13.79
2022-11-09T05:20:01.758Z,13.75
2022-11-09T05:25:01.696Z,13.75
2022-11-09T05:30:01.468Z,13.68
2022-11-09T05:35:01.775Z,13.68
2022-11-09T05:40:01.733Z,13.64
2022-11-09T05:45:28.000Z,13.65
2022-11-09T05:50:01.898Z,13.64
2022-11-09T05:55:02.081Z,13.66
2022-11-09T06:00:01.885Z,13.68
2022-11-09T06:05:01.795Z,13.73
2022-11-09T06:10:01.628Z,13.71
2022-11-09T06:15:01.718Z,13.7
2022-11-09T06:20:01.531Z,13.68
2022-11-09T06:25:01.558Z,13.63
2022-11-09T06:30:01.594Z,13.6
2022-11-09T06:35:01.858Z,13.52
2022-11-09T06:40:01.720Z,13.37
2022-11-09T06:45:02.308Z,13.23
2022-11-09T06:50:01.582Z,13.12
2022-11-09T06:55:01.876Z,13.07
2022-11-09T07:00:02.617Z,13
2022-11-09T07:05:02.169Z,13.01
2022-11-09T07:10:01.541Z,12.99
2022-11-09T07:15:01.313Z,12.92
2022-11-09T07:20:01.775Z,12.91
2022-11-09T07:25:03.090Z,12.88
2022-11-09T07:30:01.579Z,12.84
2022-11-09T07:35:01.563Z,12.88
2022-11-09T07:40:02.358Z,12.93
2022-11-09T07:45:02.001Z,13.02
2022-11-09T07:50:01.725Z,13.06
2022-11-09T07:55:02.245Z,13.14
2022-11-09T08:00:04.049Z,13.16
2022-11-09T08:05:01.680Z,13.15
2022-11-09T08:10:01.517Z,13.15
2022-11-09T08:15:02.481Z,13.31
2022-11-09T08:20:02.658Z,13.43
2022-11-09T08:25:02.729Z,13.56
2022-11-09T08:30:01.944Z,13.61
2022-11-09T08:35:03.005Z,13.64
2022-11-09T08:40:02.117Z,13.73
2022-11-09T08:45:02.419Z,13.88
2022-11-09T08:50:03.043Z,13.94
2022-11-09T08:55:01.413Z,14.08
2022-11-09T09:00:02.334Z,14.25
2022-11-09T09:05:01.951Z,14.37
2022-11-09T09:10:01.778Z,14.45
2022-11-09T09:15:02.026Z,14.56
2022-11-09T09:20:02.009Z,14.65
2022-11-09T09:25:03.349Z,14.79
2022-11-09T09:30:03.386Z,14.88
2022-11-09T09:35:02.428Z,14.68
2022-11-09T09:40:02.270Z,14.58
2022-11-09T09:45:02.725Z,14.58
2022-11-09T09:50:02.251Z,14.68
2022-11-09T09:55:01.996Z,14.62
2022-11-09T10:00:02.466Z,14.65
2022-11-09T10:05:02.080Z,14.73
2022-11-09T10:10:01.574Z,14.88
2022-11-09T10:15:02.385Z,15.11
2022-11-09T10:20:02.176Z,15.39
2022-11-09T10:25:24.035Z,15.55
2022-11-09T10:30:02.494Z,15.54
2022-11-09T10:35:02.211Z,15.24
2022-11-09T10:40:02.103Z,14.98
2022-11-09T10:45:01.860Z,14.91
2022-11-09T10:50:02.596Z,14.85
2022-11-09T10:55:01.655Z,14.8
2022-11-09T11:00:02.074Z,14.85
2022-11-09T11:05:01.877Z,14.88
2022-11-09T11:10:02.260Z,14.83
2022-11-09T11:15:02.023Z,14.7
2022-11-09T11:20:01.710Z,14.65
2022-11-09T11:25:02.099Z,14.57
2022-11-09T11:30:02.439Z,14.55
2022-11-09T11:35:02.223Z,14.56
2022-11-09T11:40:02.177Z,14.56
2022-11-09T11:45:26.130Z,14.68
2022-11-09T11:50:02.231Z,14.73
2022-11-09T11:55:02.213Z,14.77
2022-11-09T12:00:02.240Z,14.77
2022-11-09T12:05:02.435Z,14.75
2022-11-09T12:10:02.058Z,14.81
2022-11-09T12:15:02.435Z,14.78
2022-11-09T12:20:01.510Z,14.74
2022-11-09T12:25:02.166Z,14.75
2022-11-09T12:30:01.778Z,14.72
2022-11-09T12:35:01.656Z,14.62
2022-11-09T12:40:01.456Z,14.6
2022-11-09T12:45:01.625Z,14.6
2022-11-09T12:50:02.058Z,14.59
2022-11-09T12:55:01.553Z,14.58
2022-11-09T13:00:01.685Z,14.57
2022-11-09T13:05:01.829Z,14.6
2022-11-09T13:10:01.990Z,14.6
2022-11-09T13:15:01.967Z,14.65
2022-11-09T13:20:01.619Z,14.73
2022-11-09T13:25:01.883Z,14.78
2022-11-09T13:30:02.235Z,14.75
2022-11-09T13:35:01.634Z,14.68
2022-11-09T13:40:01.686Z,14.6
2022-11-09T13:45:01.978Z,14.58
2022-11-09T13:50:02.089Z,14.55
2022-11-09T13:55:01.961Z,14.51
2022-11-09T14:00:02.007Z,14.47
2022-11-09T14:05:01.657Z,14.42
2022-11-09T14:10:02.204Z,14.35
2022-11-09T14:15:02.059Z,14.33
2022-11-09T14:20:01.658Z,14.28
2022-11-09T14:25:02.218Z,14.29
2022-11-09T14:30:01.608Z,14.37
2022-11-09T14:35:01.971Z,14.26
2022-11-09T14:40:02.208Z,14.13
2022-11-09T14:45:01.351Z,14.05
2022-11-09T14:50:02.117Z,13.92
2022-11-09T14:55:01.710Z,13.83
2022-11-09T15:00:02.060Z,13.79
2022-11-09T15:05:02.148Z,13.75
2022-11-09T15:10:01.381Z,13.68
2022-11-09T15:15:01.580Z,13.65
2022-11-09T15:20:02.003Z,13.64
2022-11-09T15:25:01.976Z,13.6
2022-11-09T15:30:02.182Z,13.54
2022-11-09T15:35:02.211Z,13.47
2022-11-09T15:40:01.870Z,13.37
2022-11-09T15:45:01.915Z,13.33
2022-11-09T15:50:01.963Z,13.26
2022-11-09T15:55:01.771Z,13.15
2022-11-09T16:00:01.697Z,12.99
2022-11-09T16:05:02.116Z,12.8
2022-11-09T16:10:02.281Z,12.62
2022-11-09T16:15:01.493Z,12.49
2022-11-09T16:20:02.294Z,12.38
2022-11-09T16:25:02.088Z,12.4
2022-11-09T16:30:02.051Z,12.5
2022-11-09T16:35:25.483Z,12.38
2022-11-09T16:40:01.813Z,12.33
2022-11-09T16:45:01.739Z,12.15
2022-11-09T16:50:01.968Z,11.96
2022-11-09T16:55:01.312Z,11.78
2022-11-09T17:00:01.358Z,11.78
2022-11-09T17:05:01.418Z,11.75
2022-11-09T17:10:01.752Z,11.64
2022-11-09T17:15:01.757Z,11.52
2022-11-09T17:20:01.801Z,11.46
2022-11-09T17:25:01.780Z,11.37
2022-11-09T17:30:01.774Z,11.29
2022-11-09T17:35:01.551Z,11.17
2022-11-09T17:40:01.575Z,11.09
2022-11-09T17:45:01.620Z,11.03
2022-11-09T17:50:01.513Z,11.03
2022-11-09T17:55:01.408Z,11.04
2022-11-09T18:00:01.281Z,11.11
2022-11-09T18:05:01.549Z,11.15
2022-11-09T18:10:01.808Z,11.16
2022-11-09T18:15:01.992Z,11.18
2022-11-09T18:20:02.153Z,11.2
2022-11-09T18:25:01.906Z,11.24
2022-11-09T18:30:01.763Z,11.27
2022-11-09T18:35:01.903Z,11.29
2022-11-09T18:40:01.664Z,11.33
2022-11-09T18:45:01.373Z,11.29
2022-11-09T18:50:01.343Z,11.25
2022-11-09T18:55:01.516Z,11.2
2022-11-09T19:00:01.817Z,11.11
2022-11-09T19:05:01.750Z,11.03
2022-11-09T19:10:01.950Z,10.93
2022-11-09T19:15:01.917Z,10.94
2022-11-09T19:20:01.919Z,10.94
2022-11-09T19:30:07.930Z,10.85
2022-11-09T19:35:01.401Z,10.8
2022-11-09T19:40:01.688Z,10.78
2022-11-09T19:45:01.957Z,10.72
2022-11-09T19:50:01.707Z,10.63
2022-11-09T19:55:01.687Z,10.55
2022-11-09T20:00:01.855Z,10.48
2022-11-09T20:05:01.755Z,10.4
2022-11-09T20:10:02.101Z,10.27
2022-11-09T20:15:01.854Z,10.2
2022-11-09T20:20:01.784Z,10.13
2022-11-09T20:25:01.956Z,10.04
2022-11-09T20:30:01.952Z,9.95
2022-11-09T20:35:02.034Z,9.89
2022-11-09T20:40:02.220Z,9.78
2022-11-09T20:45:02.062Z,9.75
2022-11-09T20:50:01.821Z,9.68
2022-11-09T20:55:01.595Z,9.65
2022-11-09T21:00:02.811Z,9.61
2022-11-09T21:05:01.996Z,9.61
2022-11-09T21:10:02.104Z,9.56
2022-11-09T21:15:02.169Z,9.52
2022-11-09T21:20:01.856Z,9.46
2022-11-09T21:25:02.292Z,9.42
2022-11-09T21:30:02.391Z,9.46
2022-11-09T21:35:02.053Z,9.52
2022-11-09T21:40:02.633Z,9.59
2022-11-09T21:45:02.409Z,9.61
2022-11-09T21:50:01.812Z,9.61
2022-11-09T21:55:02.603Z,9.65
2022-11-09T22:00:02.135Z,9.69
2022-11-09T22:05:01.682Z,9.71
2022-11-09T22:10:10.770Z,9.79
2022-11-09T22:15:02.290Z,9.84
2022-11-09T22:20:02.130Z,9.92
2022-11-09T22:25:01.528Z,9.98
2022-11-09T22:30:02.440Z,9.94
2022-11-09T22:35:02.681Z,9.86
2022-11-09T22:40:02.169Z,9.78
2022-11-09T22:45:01.905Z,9.71
2022-11-09T22:50:01.939Z,9.67
2022-11-09T22:55:01.833Z,9.55
2022-11-09T23:00:02.091Z,9.53
2022-11-09T23:05:02.024Z,9.45
2022-11-09T23:10:02.271Z,9.4
2022-11-09T23:15:02.922Z,9.37
2022-11-09T23:20:02.249Z,9.34
2022-11-09T23:25:01.581Z,9.34
2022-11-09T23:30:02.433Z,9.32
2022-11-09T23:35:01.615Z,9.29
2022-11-09T23:40:02.562Z,9.26
2022-11-09T23:45:02.276Z,9.24
2022-11-09T23:50:02.398Z,9.22
2022-11-09T23:55:01.862Z,9.15
